Terminal Aerodrome Forecast
Issued by NWS

Home | Current Version | Previous Version | Text Only | Print | Product List | Glossary On
Versions: 1 2 3 4 5 6 7 8 9 10 11 12 13 14 15 16 17 18 19 20
000
FTAK31 PAFA 202327
TAFASC
TAF
PASC 202327Z 2100/2124 06015KT P6SM FEW004
     FM210600 08018KT 2SM BR OVC007
     FM211600 08012KT 1/2SM FG OVC003
     FM212100 08014KT P6SM FEW003 BKN020=

USA.gov is the U.S. government's official web portal to all federal, state and local government web resources and services.